createdAt,value
2022-11-01T00:00:04.876Z,98990.52
2022-11-01T00:05:28.307Z,98992.69
2022-11-01T00:10:31.743Z,98998.45
2022-11-01T00:15:35.102Z,98995.36
2022-11-01T00:20:38.453Z,99000.16
2022-11-01T00:25:41.920Z,99001.02
2022-11-01T00:30:45.443Z,98997.75
2022-11-01T00:35:48.824Z,98985.16
2022-11-01T00:40:52.238Z,98976.39
2022-11-01T00:45:55.741Z,98968.34
2022-11-01T00:50:59.178Z,98953.77
2022-11-01T00:56:02.605Z,98944.84
2022-11-01T01:01:06.098Z,98943.63
2022-11-01T01:06:09.638Z,98940.50
2022-11-01T01:11:13.009Z,98931.38
2022-11-01T01:16:16.429Z,98932.29
2022-11-01T01:21:20.194Z,98931.80
2022-11-01T01:26:23.566Z,98919.66
2022-11-01T01:31:26.981Z,98930.40
2022-11-01T01:36:30.436Z,98930.97
2022-11-01T01:41:51.916Z,98925.02
2022-11-01T01:46:55.269Z,98921.55
2022-11-01T01:51:58.645Z,98917.55
2022-11-01T01:57:01.988Z,98914.04
2022-11-01T02:02:05.413Z,98913.73
2022-11-01T02:07:08.829Z,98921.34
2022-11-01T02:12:12.277Z,98924.36
2022-11-01T02:17:15.689Z,98912.40
2022-11-01T02:22:19.216Z,98903.25
2022-11-01T02:27:22.711Z,98897.48
2022-11-01T02:32:26.101Z,98902.77
2022-11-01T02:37:29.469Z,98898.89
2022-11-01T02:42:32.862Z,98900.34
2022-11-01T02:47:36.250Z,98896.33
2022-11-01T02:52:39.663Z,98902.85
2022-11-01T02:57:43.029Z,98908.13
2022-11-01T03:02:46.416Z,98909.23
2022-11-01T03:07:49.794Z,98912.41
2022-11-01T03:12:53.348Z,98919.11
2022-11-01T03:17:56.843Z,98918.08
2022-11-01T03:23:00.457Z,98914.20
2022-11-01T03:28:04.105Z,98913.18
2022-11-01T03:33:07.553Z,98914.42
2022-11-01T03:38:10.989Z,98920.40
2022-11-01T03:43:14.410Z,98925.12
2022-11-01T03:48:17.852Z,98934.98
2022-11-01T03:53:21.227Z,98931.45
2022-11-01T03:58:24.609Z,98919.67
2022-11-01T04:03:27.965Z,98917.41
2022-11-01T04:08:31.581Z,98910.69
2022-11-01T04:13:34.949Z,98897.15
2022-11-01T04:18:55.892Z,98887.11
2022-11-01T04:23:59.363Z,98879.38
2022-11-01T04:29:02.727Z,98875.66
2022-11-01T04:34:06.101Z,98879.70
2022-11-01T04:39:09.477Z,98875.70
2022-11-01T04:44:12.885Z,98876.23
2022-11-01T04:49:16.233Z,98867.92
2022-11-01T04:54:19.656Z,98869.20
2022-11-01T04:59:23.093Z,98870.08
2022-11-01T05:04:26.492Z,98864.11
2022-11-01T05:09:31.168Z,98860.55
2022-11-01T05:14:34.799Z,98863.56
2022-11-01T05:19:38.240Z,98861.90
2022-11-01T05:29:46.000Z,98856.77
2022-11-01T05:34:50.624Z,98862.89
2022-11-01T05:39:54.025Z,98861.71
2022-11-01T05:44:57.404Z,98854.97
2022-11-01T05:50:00.784Z,98855.32
2022-11-01T05:55:04.159Z,98867.12
2022-11-01T06:00:07.521Z,98857.47
2022-11-01T06:05:11.318Z,98852.60
2022-11-01T06:10:14.801Z,98851.21
2022-11-01T06:15:18.254Z,98852.31
2022-11-01T06:20:21.702Z,98856.37
2022-11-01T06:25:25.056Z,98860.41
2022-11-01T06:30:28.486Z,98865.86
2022-11-01T06:35:31.943Z,98866.38
2022-11-01T06:40:35.572Z,98866.55
2022-11-01T06:45:39.066Z,98861.96
2022-11-01T06:50:42.444Z,98853.33
2022-11-01T06:55:45.917Z,98863.83
2022-11-01T07:00:49.419Z,98875.83
2022-11-01T07:05:52.978Z,98869.52
2022-11-01T07:11:04.820Z,98865.89
2022-11-01T07:16:08.233Z,98860.98
2022-11-01T07:21:11.711Z,98865.36
2022-11-01T07:26:15.112Z,98864.31
2022-11-01T07:31:18.965Z,98865.60
2022-11-01T07:36:22.405Z,98865.17
2022-11-01T07:41:25.867Z,98862.01
2022-11-01T07:46:30.546Z,98857.69
2022-11-01T07:51:34.223Z,98861.43
2022-11-01T07:56:37.706Z,98860.52
2022-11-01T08:01:41.155Z,98850.70
2022-11-01T08:06:46.947Z,98847.69
2022-11-01T08:11:51.925Z,98843.50
2022-11-01T08:17:00.744Z,98851.67
2022-11-01T08:22:04.312Z,98864.59
2022-11-01T08:27:07.884Z,98873.74
2022-11-01T08:32:11.319Z,98867.02
2022-11-01T08:37:14.741Z,98868.77
2022-11-01T08:42:18.170Z,98862.33
2022-11-01T08:47:22.336Z,98851.88
2022-11-01T08:52:25.746Z,98854.05
2022-11-01T08:57:29.121Z,98851.77
2022-11-01T09:02:32.541Z,98859.40
2022-11-01T09:07:36.049Z,98856.81
2022-11-01T09:17:43.844Z,98858.21
2022-11-01T09:22:47.312Z,98860.67
2022-11-01T09:27:50.829Z,98861.61
2022-11-01T09:32:54.299Z,98869.40
2022-11-01T09:37:57.775Z,98880.80
2022-11-01T09:43:02.087Z,98883.31
2022-11-01T09:48:05.991Z,98882.21
2022-11-01T09:53:09.560Z,98880.20
2022-11-01T09:58:12.912Z,98878.30
2022-11-01T10:03:16.763Z,98872.41
2022-11-01T10:08:20.129Z,98875.04
2022-11-01T10:13:23.556Z,98881.41
2022-11-01T10:18:27.358Z,98877.81
2022-11-01T10:23:30.754Z,98858.92
2022-11-01T10:28:34.161Z,98848.56
2022-11-01T10:33:37.544Z,98859.69
2022-11-01T10:39:10.822Z,98855.45
2022-11-01T10:44:04.333Z,98856.83
2022-11-01T10:49:07.746Z,98859.61
2022-11-01T10:54:11.204Z,98859.05
2022-11-01T10:59:14.580Z,98856.02
2022-11-01T11:04:17.969Z,98855.59
2022-11-01T11:09:21.413Z,98855.73
2022-11-01T11:14:24.764Z,98867.27
2022-11-01T11:19:28.257Z,98868.91
2022-11-01T11:24:31.645Z,98862.83
2022-11-01T11:29:35.355Z,98859.84
2022-11-01T11:34:39.229Z,98854.64
2022-11-01T11:39:42.631Z,98856.05
2022-11-01T11:44:46.973Z,98857.61
2022-11-01T11:49:54.049Z,98861.60
2022-11-01T11:54:57.654Z,98866.55
2022-11-01T12:00:01.026Z,98862.19
2022-11-01T12:05:04.689Z,98866.68
2022-11-01T12:10:08.124Z,98867.27
2022-11-01T12:15:11.521Z,98866.40
2022-11-01T12:20:15.025Z,98874.20
2022-11-01T12:25:19.128Z,98877.01
2022-11-01T12:30:22.526Z,98877.89
2022-11-01T12:35:26.006Z,98883.12
2022-11-01T12:40:29.388Z,98873.59
2022-11-01T12:45:32.784Z,98876.14
2022-11-01T12:50:49.788Z,98876.30
2022-11-01T12:55:53.148Z,98885.04
2022-11-01T13:00:56.688Z,98889.23
2022-11-01T13:06:00.153Z,98889.44
2022-11-01T13:11:03.546Z,98889.02
2022-11-01T13:16:06.927Z,98890.31
2022-11-01T13:21:10.786Z,98889.67
2022-11-01T13:26:14.179Z,98901.82
2022-11-01T13:31:17.554Z,98904.48
2022-11-01T13:36:21.050Z,98903.63
2022-11-01T13:41:24.746Z,98909.33
2022-11-01T13:46:28.156Z,98912.98
2022-11-01T13:51:31.671Z,98906.55
2022-11-01T13:56:35.153Z,98905.89
2022-11-01T14:01:40.712Z,98901.63
2022-11-01T14:06:44.294Z,98907.63
2022-11-01T14:11:47.704Z,98903.23
2022-11-01T14:16:51.133Z,98905.52
2022-11-01T14:21:54.670Z,98911.02
2022-11-01T14:26:58.085Z,98916.83
2022-11-01T14:32:02.009Z,98916.03
2022-11-01T14:37:05.498Z,98919.11
2022-11-01T14:42:10.772Z,98923.13
2022-11-01T14:47:14.732Z,98921.43
2022-11-01T14:52:18.175Z,98931.09
2022-11-01T14:57:21.761Z,98928.59
2022-11-01T15:02:25.622Z,98926.54
2022-11-01T15:07:31.262Z,98930.53
2022-11-01T15:12:34.985Z,98936.99
2022-11-01T15:17:38.393Z,98945.51
2022-11-01T15:22:41.845Z,98950.38
2022-11-01T15:27:45.288Z,98953.11
2022-11-01T15:32:48.837Z,98961.00
2022-11-01T15:37:53.336Z,98957.13
2022-11-01T15:42:57.122Z,98960.87
2022-11-01T15:48:01.320Z,98961.82
2022-11-01T15:53:04.826Z,98960.55
2022-11-01T15:58:10.280Z,98967.70
2022-11-01T16:03:13.709Z,98973.75
2022-11-01T16:08:17.160Z,98972.81
2022-11-01T16:13:20.734Z,98980.52
2022-11-01T16:18:24.242Z,98995.45
2022-11-01T16:23:28.471Z,98990.96
2022-11-01T16:28:32.183Z,98979.61
2022-11-01T16:33:35.845Z,98983.80
2022-11-01T16:38:39.242Z,98989.14
2022-11-01T16:43:42.952Z,98988.21
2022-11-01T16:48:47.411Z,98993.30
2022-11-01T16:53:50.891Z,98996.29
2022-11-01T16:58:54.653Z,99003.20
2022-11-01T17:03:58.112Z,99010.27
2022-11-01T17:09:01.466Z,99016.66
2022-11-01T17:14:04.941Z,99019.30
2022-11-01T17:19:08.349Z,99026.65
2022-11-01T17:24:11.766Z,99034.54
2022-11-01T17:29:15.584Z,99036.48
2022-11-01T17:34:19.069Z,99035.91
2022-11-01T17:39:22.486Z,99037.55
2022-11-01T17:44:25.877Z,99045.61
2022-11-01T17:49:29.438Z,99048.55
2022-11-01T17:54:33.150Z,99049.09
2022-11-01T17:59:36.557Z,99050.09
2022-11-01T18:04:40.016Z,99058.34
2022-11-01T18:09:43.408Z,99055.78
2022-11-01T18:14:46.861Z,99055.08
2022-11-01T18:19:50.383Z,99054.46
2022-11-01T18:24:53.806Z,99054.28
2022-11-01T18:29:57.413Z,99050.26
2022-11-01T18:35:00.989Z,99046.72
2022-11-01T18:40:04.553Z,99050.28
2022-11-01T18:45:07.973Z,99049.08
2022-11-01T18:50:16.327Z,99047.69
2022-11-01T18:55:20.060Z,99050.84
2022-11-01T19:00:23.605Z,99053.86
2022-11-01T19:05:27.067Z,99062.88
2022-11-01T19:10:30.448Z,99066.64
2022-11-01T19:15:33.869Z,99073.52
2022-11-01T19:20:37.513Z,99080.56
2022-11-01T19:25:40.951Z,99079.52
2022-11-01T19:30:44.407Z,99079.82
2022-11-01T19:35:47.840Z,99086.89
2022-11-01T19:40:51.836Z,99095.69
2022-11-01T19:45:55.488Z,99098.16
2022-11-01T19:51:00.406Z,99101.23
2022-11-01T19:56:04.529Z,99100.35
2022-11-01T20:01:09.416Z,99100.27
2022-11-01T20:06:13.456Z,99106.22
2022-11-01T20:11:16.858Z,99103.06
2022-11-01T20:16:20.488Z,99107.04
2022-11-01T20:21:24.000Z,99107.85
2022-11-01T20:26:27.406Z,99109.91
2022-11-01T20:31:30.894Z,99112.39
2022-11-01T20:36:34.966Z,99123.02
2022-11-01T20:41:38.376Z,99125.03
2022-11-01T20:46:43.663Z,99132.75
2022-11-01T20:51:47.140Z,99141.69
2022-11-01T20:56:50.621Z,99139.50
2022-11-01T21:01:54.859Z,99138.63
2022-11-01T21:06:58.465Z,99145.13
2022-11-01T21:12:01.861Z,99149.23
2022-11-01T21:17:05.252Z,99155.85
2022-11-01T21:22:08.857Z,99155.66
2022-11-01T21:27:12.261Z,99155.83
2022-11-01T21:32:15.661Z,99160.08
2022-11-01T21:37:19.239Z,99156.75
2022-11-01T21:42:22.876Z,99153.08
2022-11-01T21:47:26.714Z,99152.38
2022-11-01T21:52:30.096Z,99153.40
2022-11-01T21:57:33.471Z,99152.33
2022-11-01T22:02:37.025Z,99153.92
2022-11-01T22:07:40.574Z,99159.33
2022-11-01T22:12:43.961Z,99158.40
2022-11-01T22:17:47.504Z,99142.61
2022-11-01T22:22:51.126Z,99141.09
2022-11-01T22:27:54.535Z,99127.60
2022-11-01T22:32:57.920Z,99120.74
2022-11-01T22:38:03.331Z,99127.09
2022-11-01T22:43:06.947Z,99132.05
2022-11-01T22:48:10.566Z,99136.79
2022-11-01T22:53:13.984Z,99140.80
2022-11-01T22:58:17.360Z,99140.16
2022-11-01T23:03:20.929Z,99140.78
2022-11-01T23:08:24.641Z,99145.77
2022-11-01T23:13:45.664Z,99141.76
2022-11-01T23:18:49.011Z,99144.17
2022-11-01T23:23:52.357Z,99148.27
2022-11-01T23:28:56.352Z,99141.95
2022-11-01T23:33:59.940Z,99140.22
2022-11-01T23:39:03.357Z,99134.28
2022-11-01T23:44:10.773Z,99136.60
2022-11-01T23:49:14.181Z,99135.41
2022-11-01T23:54:17.617Z,99134.05
2022-11-01T23:59:21.005Z,99137.98
